Easterwood Field
KCLL : now visible

Aeroporto :











RITROVATECI SU...

 
LOGIN :

Iscrizione | Disclaimer

   EN    FR    IT 

 









Sommario :    VFR   VFR Marginale   IFR   IFR Intensivo   IFR Molto Intensivo
Visibilità : 
Base nubi : 
>= 8 km
>= 3000ft
5 / 8 km
1000 / 3000 ft
1500m / 5 km
500 / 1000 ft
800 / 1500m
200 / 500 ft
< 800m
< 200 ft
Simboli :   Temporali  Nebbia  Neve Forte  Precipitazioni Forti  Vento > 20 kt






- Altitudine del aeroporto : 320 ft
- Codice IATA : CLL


KCLL - Easterwood Field

ULTIMO METAR :
  • 151553Z 19016G22KT 10SM OVC019 22/18 A2983 RMK AO2 SLP096 T02220178

METARs OBSOLETI :
  • 151453Z 19010KT 10SM OVC016 21/18 A2982 RMK AO2 SLP094 T02060178 53018
  • 151406Z 19009KT 10SM OVC016 20/18 A2981 RMK AO2 T02000178

TAF KCLL
Valido dal 15 a 15 ore il 16 a 12 ore UTC


151513Z 1515/1612 19010KT P6SM OVC015 WS020/21030KT
FM151700 20013G21KT P6SM BKN020
FM152100 18009KT P6SM SCT025
FM160200 17007KT P6SM BKN015
FM160500 19006KT P6SM VCSH OVC010



MetMap, La meteo Aeronautica in un colpo d'occhio ! - Copyright ORBIFLY Dicembre 2007 - Disclaimer

ORBIFLY MET'MAP TEAM :

Programmazione e sviluppo : Alexandra Zaïnal
Concezione : Baudouin d'Aumeries
Aiuto per la programmazione : Marc-Olivier Méhu
Supporto tecnico e logistico : Manuel Goepfert
Aiuto per la traduzione : Arnaldo La Scala

Contatto : metmap@orbifly.com




FONTI E CREDITI :

   NOAA       Earth
Advisory